createdAt,value
2022-09-28T00:00:48.210Z,13.02
2022-09-28T00:06:10.730Z,13.18
2022-09-28T00:11:15.937Z,13.20
2022-09-28T00:16:24.613Z,13.00
2022-09-28T00:21:32.499Z,13.00
2022-09-28T00:26:36.210Z,12.90
2022-09-28T00:31:39.924Z,12.90
2022-09-28T00:36:47.021Z,12.90
2022-09-28T00:41:52.107Z,12.90
2022-09-28T00:47:20.386Z,12.90
2022-09-28T00:53:18.627Z,13.00
2022-09-28T00:58:32.376Z,13.00
2022-09-28T01:03:38.793Z,13.10
2022-09-28T01:08:45.045Z,13.12
2022-09-28T01:13:54.803Z,13.00
2022-09-28T01:19:43.045Z,12.90
2022-09-28T01:24:49.611Z,12.80
2022-09-28T01:30:16.026Z,12.70
2022-09-28T01:35:35.935Z,12.70
2022-09-28T01:40:41.935Z,12.50
2022-09-28T01:45:51.719Z,12.50
2022-09-28T01:51:04.196Z,12.46
2022-09-28T01:56:26.668Z,12.30
2022-09-28T02:01:44.430Z,12.30
2022-09-28T02:07:03.036Z,12.30
2022-09-28T02:12:20.826Z,12.40
2022-09-28T02:17:24.817Z,12.30
2022-09-28T02:22:34.988Z,12.10
2022-09-28T02:28:05.845Z,12.00
2022-09-28T02:33:28.926Z,11.90
2022-09-28T02:38:33.368Z,11.80
2022-09-28T02:44:00.167Z,11.70
2022-09-28T02:49:21.456Z,11.50
2022-09-28T02:55:14.228Z,11.50
2022-09-28T03:00:24.417Z,11.50
2022-09-28T03:06:00.703Z,11.50
2022-09-28T03:11:35.474Z,11.48
2022-09-28T03:16:44.842Z,11.30
2022-09-28T03:21:48.716Z,11.30
2022-09-28T03:26:52.716Z,11.40
2022-09-28T03:31:56.926Z,11.50
2022-09-28T03:37:00.906Z,11.50
2022-09-28T03:42:05.197Z,11.40
2022-09-28T03:47:09.935Z,11.20
2022-09-28T03:52:15.172Z,11.20
2022-09-28T03:57:19.170Z,11.30
2022-09-28T04:02:23.423Z,11.32
2022-09-28T04:07:30.878Z,11.40
2022-09-28T04:12:35.178Z,11.46
2022-09-28T04:17:40.347Z,11.50
2022-09-28T04:22:44.967Z,11.50
2022-09-28T04:28:08.951Z,11.38
2022-09-28T04:33:12.674Z,11.20
2022-09-28T04:38:23.503Z,11.20
2022-09-28T04:43:39.986Z,11.30
2022-09-28T04:48:44.007Z,11.48
2022-09-28T04:53:48.136Z,11.58
2022-09-28T04:58:52.976Z,11.70
2022-09-28T05:03:57.355Z,11.70
2022-09-28T05:09:01.762Z,11.60
2022-09-28T05:14:06.615Z,11.60
2022-09-28T05:19:12.146Z,11.60
2022-09-28T05:24:16.206Z,11.72
2022-09-28T05:29:20.426Z,11.80
2022-09-28T05:34:24.265Z,11.80
2022-09-28T05:39:28.088Z,11.70
2022-09-28T05:44:32.120Z,11.70
2022-09-28T05:49:35.972Z,11.80
2022-09-28T05:54:40.064Z,11.80
2022-09-28T05:59:44.325Z,11.80
2022-09-28T06:04:50.296Z,11.60
2022-09-28T06:09:54.732Z,11.60
2022-09-28T06:14:59.357Z,11.64
2022-09-28T06:20:02.992Z,11.70
2022-09-28T06:25:08.444Z,11.80
2022-09-28T06:30:13.065Z,11.80
2022-09-28T06:35:17.144Z,11.80
2022-09-28T06:40:23.145Z,11.70
2022-09-28T06:45:29.496Z,11.64
2022-09-28T06:50:41.383Z,11.70
2022-09-28T06:55:50.611Z,11.78
2022-09-28T07:00:59.812Z,11.80
2022-09-28T07:06:05.004Z,11.80
2022-09-28T07:11:09.195Z,11.70
2022-09-28T07:16:13.579Z,11.60
2022-09-28T07:21:27.786Z,11.60
2022-09-28T07:26:34.383Z,11.80
2022-09-28T07:31:38.915Z,11.90
2022-09-28T07:36:42.776Z,11.82
2022-09-28T07:41:46.791Z,11.60
2022-09-28T07:46:51.109Z,11.60
2022-09-28T07:51:54.958Z,11.70
2022-09-28T07:56:59.268Z,11.70
2022-09-28T08:02:02.948Z,11.70
2022-09-28T08:07:12.624Z,11.80
2022-09-28T08:12:16.235Z,11.60
2022-09-28T08:17:20.002Z,11.68
2022-09-28T08:22:24.240Z,11.70
2022-09-28T08:27:28.142Z,11.60
2022-09-28T08:32:33.277Z,11.80
2022-09-28T08:37:37.155Z,11.90
2022-09-28T08:42:43.840Z,12.10
2022-09-28T08:48:29.743Z,12.50
2022-09-28T08:53:50.369Z,12.66
2022-09-28T08:59:01.192Z,12.80
2022-09-28T09:04:08.052Z,13.00
2022-09-28T09:10:04.082Z,12.90
2022-09-28T09:15:25.564Z,13.10
2022-09-28T09:21:02.623Z,13.20
2022-09-28T09:26:23.547Z,13.50
2022-09-28T09:32:32.245Z,13.50
2022-09-28T09:38:21.809Z,13.70
2022-09-28T09:43:51.230Z,13.64
2022-09-28T09:49:12.170Z,14.00
2022-09-28T09:54:45.952Z,14.40
2022-09-28T09:59:50.314Z,15.10
2022-09-28T10:05:26.420Z,15.50
2022-09-28T10:10:37.880Z,15.40
2022-09-28T10:15:46.299Z,15.36
2022-09-28T10:20:55.925Z,15.30
2022-09-28T10:26:12.423Z,15.20
2022-09-28T10:31:51.469Z,15.64
2022-09-28T10:37:12.733Z,15.50
2022-09-28T10:42:31.144Z,15.10
2022-09-28T10:47:37.045Z,14.60
2022-09-28T10:52:46.228Z,14.52
2022-09-28T10:57:50.817Z,15.02
2022-09-28T11:02:55.412Z,15.94
2022-09-28T11:08:06.027Z,16.50
2022-09-28T11:13:11.078Z,16.60
2022-09-28T11:18:34.070Z,15.70
2022-09-28T11:23:38.212Z,15.00
2022-09-28T11:28:43.538Z,14.58
2022-09-28T11:33:48.208Z,14.30
2022-09-28T11:39:19.959Z,14.10
2022-09-28T11:44:46.849Z,14.38
2022-09-28T11:49:57.924Z,14.80
2022-09-28T11:55:22.762Z,15.60
2022-09-28T12:00:29.520Z,16.00
2022-09-28T12:05:45.477Z,15.80
2022-09-28T12:11:16.164Z,15.80
2022-09-28T12:17:07.323Z,16.60
2022-09-28T12:22:25.347Z,16.70
2022-09-28T12:27:39.378Z,16.30
2022-09-28T12:33:02.650Z,16.00
2022-09-28T12:38:33.311Z,15.70
2022-09-28T12:44:29.416Z,15.50
2022-09-28T12:50:36.581Z,15.30
2022-09-28T12:55:43.049Z,15.50
2022-09-28T13:01:22.151Z,15.60
2022-09-28T13:06:45.649Z,15.50
2022-09-28T13:12:12.138Z,15.50
2022-09-28T13:17:49.008Z,15.48
2022-09-28T13:23:24.316Z,15.24
2022-09-28T13:28:30.286Z,15.20
2022-09-28T13:33:39.878Z,15.30
2022-09-28T13:38:52.700Z,15.66
2022-09-28T13:44:08.493Z,15.80
2022-09-28T13:49:47.808Z,15.80
2022-09-28T13:55:18.903Z,16.00
2022-09-28T14:00:51.648Z,16.20
2022-09-28T14:06:28.578Z,16.10
2022-09-28T14:11:37.288Z,16.30
2022-09-28T14:16:46.320Z,16.60
2022-09-28T14:21:59.277Z,16.58
2022-09-28T14:27:39.668Z,16.12
2022-09-28T14:33:23.504Z,15.80
2022-09-28T14:39:16.956Z,17.64
2022-09-28T14:44:22.200Z,23.18
2022-09-28T14:49:34.049Z,25.30
2022-09-28T14:54:53.939Z,21.60
2022-09-28T15:00:00.579Z,19.94
2022-09-28T15:05:07.443Z,20.60
2022-09-28T15:10:32.648Z,21.28
2022-09-28T15:15:41.711Z,23.08
2022-09-28T15:20:50.595Z,22.72
2022-09-28T15:25:56.126Z,22.60
2022-09-28T15:31:03.286Z,20.08
2022-09-28T15:36:10.549Z,19.14
2022-09-28T15:41:14.860Z,19.20
2022-09-28T15:46:21.869Z,19.32
2022-09-28T15:51:28.819Z,18.06
2022-09-28T15:56:33.068Z,16.96
2022-09-28T16:01:44.223Z,15.96
2022-09-28T16:07:33.975Z,15.12
2022-09-28T16:12:38.105Z,14.40
2022-09-28T16:17:42.657Z,13.90
2022-09-28T16:22:47.417Z,13.48
2022-09-28T16:27:54.660Z,13.04
2022-09-28T16:33:06.261Z,12.90
2022-09-28T16:38:14.972Z,12.80
2022-09-28T16:43:39.510Z,12.60
2022-09-28T16:48:50.370Z,12.40
2022-09-28T16:54:14.362Z,12.20
2022-09-28T16:59:19.460Z,12.30
2022-09-28T17:04:25.877Z,12.44
2022-09-28T17:09:29.788Z,12.34
2022-09-28T17:14:34.643Z,12.10
2022-09-28T17:19:38.886Z,11.90
2022-09-28T17:24:42.817Z,12.00
2022-09-28T17:29:46.944Z,12.10
2022-09-28T17:35:00.879Z,12.10
2022-09-28T17:40:28.752Z,11.90
2022-09-28T17:45:39.694Z,11.70
2022-09-28T17:50:47.757Z,11.80
2022-09-28T17:55:51.936Z,11.90
2022-09-28T18:00:55.698Z,11.80
2022-09-28T18:06:11.272Z,11.60
2022-09-28T18:11:16.229Z,11.40
2022-09-28T18:16:20.075Z,11.38
2022-09-28T18:21:24.107Z,11.30
2022-09-28T18:26:28.996Z,11.20
2022-09-28T18:31:34.045Z,11.30
2022-09-28T18:36:37.906Z,11.30
2022-09-28T18:41:42.857Z,11.10
2022-09-28T18:46:46.633Z,11.00
2022-09-28T18:51:51.318Z,11.00
2022-09-28T18:56:57.526Z,11.20
2022-09-28T19:02:02.442Z,11.20
2022-09-28T19:07:08.920Z,11.00
2022-09-28T19:12:13.875Z,10.90
2022-09-28T19:17:18.674Z,10.90
2022-09-28T19:22:22.664Z,11.10
2022-09-28T19:27:26.793Z,11.10
2022-09-28T19:32:31.019Z,11.00
2022-09-28T19:37:40.082Z,10.90
2022-09-28T19:42:44.510Z,10.96
2022-09-28T19:47:49.870Z,11.10
2022-09-28T19:52:54.015Z,11.10
2022-09-28T19:58:02.294Z,11.10
2022-09-28T20:03:06.535Z,10.92
2022-09-28T20:08:14.843Z,10.86
2022-09-28T20:13:19.738Z,11.00
2022-09-28T20:18:23.826Z,10.80
2022-09-28T20:23:27.704Z,10.80
2022-09-28T20:28:33.404Z,10.80
2022-09-28T20:33:37.814Z,10.60
2022-09-28T20:38:42.657Z,10.40
2022-09-28T20:43:48.165Z,10.30
2022-09-28T20:48:52.381Z,10.20
2022-09-28T20:54:01.454Z,10.20
2022-09-28T20:59:08.465Z,10.18
2022-09-28T21:04:13.246Z,10.14
2022-09-28T21:09:17.274Z,10.20
2022-09-28T21:14:21.815Z,10.20
2022-09-28T21:19:25.959Z,10.10
2022-09-28T21:24:29.885Z,10.10
2022-09-28T21:29:33.703Z,10.30
2022-09-28T21:34:37.728Z,10.50
2022-09-28T21:39:41.554Z,10.40
2022-09-28T21:44:45.134Z,10.30
2022-09-28T21:49:49.093Z,10.44
2022-09-28T21:54:53.037Z,10.60
2022-09-28T21:59:56.955Z,10.54
2022-09-28T22:05:00.573Z,10.40
2022-09-28T22:10:04.614Z,10.40
2022-09-28T22:15:09.514Z,10.50
2022-09-28T22:20:13.382Z,10.40
2022-09-28T22:25:18.018Z,10.20
2022-09-28T22:30:22.834Z,10.20
2022-09-28T22:35:27.006Z,10.40
2022-09-28T22:40:31.184Z,10.30
2022-09-28T22:45:34.958Z,10.16
2022-09-28T22:50:39.682Z,10.10
2022-09-28T22:55:43.316Z,10.26
2022-09-28T23:00:47.143Z,10.30
2022-09-28T23:05:56.394Z,10.20
2022-09-28T23:11:00.216Z,10.00
2022-09-28T23:16:08.815Z,10.10
2022-09-28T23:21:20.132Z,10.20
2022-09-28T23:26:28.104Z,10.12
2022-09-28T23:31:33.677Z,10.00
2022-09-28T23:36:37.608Z,10.00
2022-09-28T23:41:41.366Z,10.10
2022-09-28T23:46:45.091Z,10.10
2022-09-28T23:51:48.843Z,10.00
2022-09-28T23:56:52.864Z,10.04
